sensor_id;sensor_type;location;lat;lon;timestamp;temperature;humidity
11035;DHT22;5571;48.110;-1.706;2023-01-31T00:00:10;7.20;99.90
11035;DHT22;5571;48.110;-1.706;2023-01-31T00:02:36;7.20;99.90
11035;DHT22;5571;48.110;-1.706;2023-01-31T00:05:02;7.20;99.90
11035;DHT22;5571;48.110;-1.706;2023-01-31T00:07:28;7.20;99.90
11035;DHT22;5571;48.110;-1.706;2023-01-31T00:09:53;7.20;99.90
11035;DHT22;5571;48.110;-1.706;2023-01-31T00:12:19;7.20;99.90
11035;DHT22;5571;48.110;-1.706;2023-01-31T00:14:45;7.20;99.90
11035;DHT22;5571;48.110;-1.706;2023-01-31T00:17:10;7.20;99.90
11035;DHT22;5571;48.110;-1.706;2023-01-31T00:19:36;7.10;99.90
11035;DHT22;5571;48.110;-1.706;2023-01-31T00:22:01;7.10;99.90
11035;DHT22;5571;48.110;-1.706;2023-01-31T00:24:27;7.10;99.90
11035;DHT22;5571;48.110;-1.706;2023-01-31T00:26:53;7.10;99.90
11035;DHT22;5571;48.110;-1.706;2023-01-31T00:29:23;7.00;99.90
11035;DHT22;5571;48.110;-1.706;2023-01-31T00:31:49;7.00;99.90
11035;DHT22;5571;48.110;-1.706;2023-01-31T00:34:15;7.00;99.90
11035;DHT22;5571;48.110;-1.706;2023-01-31T00:36:41;7.00;99.90
11035;DHT22;5571;48.110;-1.706;2023-01-31T00:39:07;7.00;99.90
11035;DHT22;5571;48.110;-1.706;2023-01-31T00:41:35;7.00;99.90
11035;DHT22;5571;48.110;-1.706;2023-01-31T00:44:01;7.00;99.90
11035;DHT22;5571;48.110;-1.706;2023-01-31T00:46:27;7.00;99.90
11035;DHT22;5571;48.110;-1.706;2023-01-31T00:48:53;7.00;99.90
11035;DHT22;5571;48.110;-1.706;2023-01-31T00:51:21;7.00;99.90
11035;DHT22;5571;48.110;-1.706;2023-01-31T00:53:47;7.00;99.90
11035;DHT22;5571;48.110;-1.706;2023-01-31T00:56:18;6.90;99.90
11035;DHT22;5571;48.110;-1.706;2023-01-31T00:58:44;6.90;99.90
11035;DHT22;5571;48.110;-1.706;2023-01-31T01:03:38;7.00;99.90
11035;DHT22;5571;48.110;-1.706;2023-01-31T01:06:05;7.00;99.90
11035;DHT22;5571;48.110;-1.706;2023-01-31T01:08:32;7.00;99.90
11035;DHT22;5571;48.110;-1.706;2023-01-31T01:11:12;6.90;99.90
11035;DHT22;5571;48.110;-1.706;2023-01-31T01:13:38;6.90;99.90
11035;DHT22;5571;48.110;-1.706;2023-01-31T01:16:10;6.90;99.90
11035;DHT22;5571;48.110;-1.706;2023-01-31T01:18:36;6.90;99.90
11035;DHT22;5571;48.110;-1.706;2023-01-31T01:21:15;6.90;99.90
11035;DHT22;5571;48.110;-1.706;2023-01-31T01:23:40;6.90;99.90
11035;DHT22;5571;48.110;-1.706;2023-01-31T01:26:16;6.90;99.90
11035;DHT22;5571;48.110;-1.706;2023-01-31T01:28:42;6.90;99.90
11035;DHT22;5571;48.110;-1.706;2023-01-31T01:31:10;6.90;99.90
11035;DHT22;5571;48.110;-1.706;2023-01-31T01:33:36;6.90;99.90
11035;DHT22;5571;48.110;-1.706;2023-01-31T01:36:03;6.90;99.90
11035;DHT22;5571;48.110;-1.706;2023-01-31T01:38:29;6.90;99.90
11035;DHT22;5571;48.110;-1.706;2023-01-31T01:40:55;6.90;99.90
11035;DHT22;5571;48.110;-1.706;2023-01-31T01:43:23;6.90;99.90
11035;DHT22;5571;48.110;-1.706;2023-01-31T01:46:03;6.90;99.90
11035;DHT22;5571;48.110;-1.706;2023-01-31T01:48:29;6.80;99.90
11035;DHT22;5571;48.110;-1.706;2023-01-31T01:50:55;6.80;99.90
11035;DHT22;5571;48.110;-1.706;2023-01-31T01:53:24;6.80;99.90
11035;DHT22;5571;48.110;-1.706;2023-01-31T01:56:00;6.80;99.90
11035;DHT22;5571;48.110;-1.706;2023-01-31T01:58:38;6.80;99.90
11035;DHT22;5571;48.110;-1.706;2023-01-31T02:01:06;6.90;99.90
11035;DHT22;5571;48.110;-1.706;2023-01-31T02:03:32;6.80;99.90
11035;DHT22;5571;48.110;-1.706;2023-01-31T02:06:02;6.90;99.90
11035;DHT22;5571;48.110;-1.706;2023-01-31T02:08:32;6.90;99.90
11035;DHT22;5571;48.110;-1.706;2023-01-31T02:11:22;6.90;99.90
11035;DHT22;5571;48.110;-1.706;2023-01-31T02:13:54;6.90;99.90
11035;DHT22;5571;48.110;-1.706;2023-01-31T02:16:20;6.80;99.90
11035;DHT22;5571;48.110;-1.706;2023-01-31T02:18:46;6.80;99.90
11035;DHT22;5571;48.110;-1.706;2023-01-31T02:33:24;6.80;99.90
11035;DHT22;5571;48.110;-1.706;2023-01-31T02:36:31;6.80;99.90
11035;DHT22;5571;48.110;-1.706;2023-01-31T02:48:04;6.80;99.90
11035;DHT22;5571;48.110;-1.706;2023-01-31T02:54:11;6.80;99.90
11035;DHT22;5571;48.110;-1.706;2023-01-31T02:56:26;6.80;99.90
11035;DHT22;5571;48.110;-1.706;2023-01-31T02:58:55;6.70;99.90
11035;DHT22;5571;48.110;-1.706;2023-01-31T03:01:26;6.70;99.90
11035;DHT22;5571;48.110;-1.706;2023-01-31T03:03:57;6.70;99.90
11035;DHT22;5571;48.110;-1.706;2023-01-31T03:15:15;6.70;99.90
11035;DHT22;5571;48.110;-1.706;2023-01-31T03:22:33;6.80;99.90
11035;DHT22;5571;48.110;-1.706;2023-01-31T03:25:01;6.80;99.90
11035;DHT22;5571;48.110;-1.706;2023-01-31T03:27:29;6.80;99.90
11035;DHT22;5571;48.110;-1.706;2023-01-31T03:30:01;6.80;99.90
11035;DHT22;5571;48.110;-1.706;2023-01-31T03:32:34;6.90;99.90
11035;DHT22;5571;48.110;-1.706;2023-01-31T03:35:01;6.80;99.90
11035;DHT22;5571;48.110;-1.706;2023-01-31T03:37:58;6.90;99.90
11035;DHT22;5571;48.110;-1.706;2023-01-31T03:40:39;6.80;99.90
11035;DHT22;5571;48.110;-1.706;2023-01-31T03:43:24;6.80;99.90
11035;DHT22;5571;48.110;-1.706;2023-01-31T03:45:56;6.80;99.90
11035;DHT22;5571;48.110;-1.706;2023-01-31T03:48:27;6.80;99.90
11035;DHT22;5571;48.110;-1.706;2023-01-31T03:51:00;6.80;99.90
11035;DHT22;5571;48.110;-1.706;2023-01-31T03:53:33;6.80;99.90
11035;DHT22;5571;48.110;-1.706;2023-01-31T03:57:03;6.80;99.90
11035;DHT22;5571;48.110;-1.706;2023-01-31T03:59:00;6.80;99.90
11035;DHT22;5571;48.110;-1.706;2023-01-31T04:01:29;6.80;99.90
11035;DHT22;5571;48.110;-1.706;2023-01-31T04:04:20;6.80;99.90
11035;DHT22;5571;48.110;-1.706;2023-01-31T04:06:46;6.80;99.90
11035;DHT22;5571;48.110;-1.706;2023-01-31T04:09:12;6.80;99.90
11035;DHT22;5571;48.110;-1.706;2023-01-31T04:11:39;6.80;99.90
11035;DHT22;5571;48.110;-1.706;2023-01-31T04:14:06;6.80;99.90
11035;DHT22;5571;48.110;-1.706;2023-01-31T04:16:32;6.80;99.90
11035;DHT22;5571;48.110;-1.706;2023-01-31T04:18:58;6.80;99.90
11035;DHT22;5571;48.110;-1.706;2023-01-31T04:21:23;6.80;99.90
11035;DHT22;5571;48.110;-1.706;2023-01-31T04:23:49;6.80;99.90
11035;DHT22;5571;48.110;-1.706;2023-01-31T04:26:15;6.80;99.90
11035;DHT22;5571;48.110;-1.706;2023-01-31T04:28:40;6.80;99.90
11035;DHT22;5571;48.110;-1.706;2023-01-31T04:31:06;6.70;99.90
11035;DHT22;5571;48.110;-1.706;2023-01-31T04:33:32;6.70;99.90
11035;DHT22;5571;48.110;-1.706;2023-01-31T04:35:57;6.70;99.90
11035;DHT22;5571;48.110;-1.706;2023-01-31T04:38:23;6.70;99.90
11035;DHT22;5571;48.110;-1.706;2023-01-31T04:40:49;6.70;99.90
11035;DHT22;5571;48.110;-1.706;2023-01-31T04:43:14;6.70;99.90
11035;DHT22;5571;48.110;-1.706;2023-01-31T04:45:40;6.70;99.90
11035;DHT22;5571;48.110;-1.706;2023-01-31T04:48:06;6.70;99.90
11035;DHT22;5571;48.110;-1.706;2023-01-31T04:50:32;6.70;99.90
11035;DHT22;5571;48.110;-1.706;2023-01-31T04:52:58;6.70;99.90
11035;DHT22;5571;48.110;-1.706;2023-01-31T04:55:23;6.70;99.90
11035;DHT22;5571;48.110;-1.706;2023-01-31T04:57:50;6.70;99.90
11035;DHT22;5571;48.110;-1.706;2023-01-31T05:00:16;6.70;99.90
11035;DHT22;5571;48.110;-1.706;2023-01-31T05:02:42;6.70;99.90
11035;DHT22;5571;48.110;-1.706;2023-01-31T05:05:07;6.70;99.90
11035;DHT22;5571;48.110;-1.706;2023-01-31T05:07:33;6.70;99.90
11035;DHT22;5571;48.110;-1.706;2023-01-31T05:09:59;6.70;99.90
11035;DHT22;5571;48.110;-1.706;2023-01-31T05:12:25;6.70;99.90
11035;DHT22;5571;48.110;-1.706;2023-01-31T05:14:52;6.70;99.90
11035;DHT22;5571;48.110;-1.706;2023-01-31T05:17:18;6.60;99.90
11035;DHT22;5571;48.110;-1.706;2023-01-31T05:19:50;6.60;99.90
11035;DHT22;5571;48.110;-1.706;2023-01-31T05:22:16;6.60;99.90
11035;DHT22;5571;48.110;-1.706;2023-01-31T05:24:42;6.60;99.90
11035;DHT22;5571;48.110;-1.706;2023-01-31T05:27:09;6.60;99.90
11035;DHT22;5571;48.110;-1.706;2023-01-31T05:29:34;6.70;99.90
11035;DHT22;5571;48.110;-1.706;2023-01-31T05:32:01;6.60;99.90
11035;DHT22;5571;48.110;-1.706;2023-01-31T05:34:27;6.60;99.90
11035;DHT22;5571;48.110;-1.706;2023-01-31T05:36:55;6.70;99.90
11035;DHT22;5571;48.110;-1.706;2023-01-31T05:39:21;6.60;99.90
11035;DHT22;5571;48.110;-1.706;2023-01-31T05:41:46;6.60;99.90
11035;DHT22;5571;48.110;-1.706;2023-01-31T05:44:12;6.60;99.90
11035;DHT22;5571;48.110;-1.706;2023-01-31T05:46:39;6.60;99.90
11035;DHT22;5571;48.110;-1.706;2023-01-31T05:49:04;6.50;99.90
11035;DHT22;5571;48.110;-1.706;2023-01-31T05:51:30;6.60;99.90
11035;DHT22;5571;48.110;-1.706;2023-01-31T05:53:56;6.60;99.90
11035;DHT22;5571;48.110;-1.706;2023-01-31T05:56:22;6.60;99.90
11035;DHT22;5571;48.110;-1.706;2023-01-31T05:58:48;6.50;99.90
11035;DHT22;5571;48.110;-1.706;2023-01-31T06:01:18;6.60;99.90
11035;DHT22;5571;48.110;-1.706;2023-01-31T06:03:44;6.50;99.90
11035;DHT22;5571;48.110;-1.706;2023-01-31T06:06:10;6.60;99.90
11035;DHT22;5571;48.110;-1.706;2023-01-31T06:08:35;6.50;99.90
11035;DHT22;5571;48.110;-1.706;2023-01-31T06:11:02;6.60;99.90
11035;DHT22;5571;48.110;-1.706;2023-01-31T06:13:29;6.60;99.90
11035;DHT22;5571;48.110;-1.706;2023-01-31T06:15:55;6.60;99.90
11035;DHT22;5571;48.110;-1.706;2023-01-31T06:18:21;6.60;99.90
11035;DHT22;5571;48.110;-1.706;2023-01-31T06:20:46;6.60;99.90
11035;DHT22;5571;48.110;-1.706;2023-01-31T06:23:12;6.70;99.90
11035;DHT22;5571;48.110;-1.706;2023-01-31T06:25:37;6.70;99.90
11035;DHT22;5571;48.110;-1.706;2023-01-31T06:28:03;6.70;99.90
11035;DHT22;5571;48.110;-1.706;2023-01-31T06:30:30;6.80;99.90
11035;DHT22;5571;48.110;-1.706;2023-01-31T06:32:58;6.80;99.90
11035;DHT22;5571;48.110;-1.706;2023-01-31T06:35:24;6.80;99.90
11035;DHT22;5571;48.110;-1.706;2023-01-31T06:37:50;6.90;99.90
11035;DHT22;5571;48.110;-1.706;2023-01-31T06:40:15;6.90;99.90
11035;DHT22;5571;48.110;-1.706;2023-01-31T06:42:41;6.90;99.90
11035;DHT22;5571;48.110;-1.706;2023-01-31T06:45:07;6.90;99.90
11035;DHT22;5571;48.110;-1.706;2023-01-31T06:47:33;6.90;99.90
11035;DHT22;5571;48.110;-1.706;2023-01-31T06:49:58;6.90;99.90
11035;DHT22;5571;48.110;-1.706;2023-01-31T06:52:24;6.90;99.90
11035;DHT22;5571;48.110;-1.706;2023-01-31T06:54:50;7.00;99.90
11035;DHT22;5571;48.110;-1.706;2023-01-31T06:57:15;7.00;99.90
11035;DHT22;5571;48.110;-1.706;2023-01-31T06:59:41;7.00;99.90
11035;DHT22;5571;48.110;-1.706;2023-01-31T07:02:08;6.90;99.90
11035;DHT22;5571;48.110;-1.706;2023-01-31T07:04:34;6.90;99.90
11035;DHT22;5571;48.110;-1.706;2023-01-31T07:07:00;6.90;99.90
11035;DHT22;5571;48.110;-1.706;2023-01-31T07:09:26;6.80;99.90
11035;DHT22;5571;48.110;-1.706;2023-01-31T07:11:51;6.80;99.90
11035;DHT22;5571;48.110;-1.706;2023-01-31T07:14:17;6.80;99.90
11035;DHT22;5571;48.110;-1.706;2023-01-31T07:16:42;6.80;99.90
11035;DHT22;5571;48.110;-1.706;2023-01-31T07:19:08;6.80;99.90
11035;DHT22;5571;48.110;-1.706;2023-01-31T07:21:34;6.70;99.90
11035;DHT22;5571;48.110;-1.706;2023-01-31T07:24:01;6.80;99.90
11035;DHT22;5571;48.110;-1.706;2023-01-31T07:26:27;6.70;99.90
11035;DHT22;5571;48.110;-1.706;2023-01-31T07:28:52;6.70;99.90
11035;DHT22;5571;48.110;-1.706;2023-01-31T07:31:18;6.70;99.90
11035;DHT22;5571;48.110;-1.706;2023-01-31T07:33:45;6.70;99.90
11035;DHT22;5571;48.110;-1.706;2023-01-31T07:36:13;6.70;99.90
11035;DHT22;5571;48.110;-1.706;2023-01-31T07:38:39;6.70;99.90
11035;DHT22;5571;48.110;-1.706;2023-01-31T07:41:05;6.70;99.90
11035;DHT22;5571;48.110;-1.706;2023-01-31T07:43:31;6.70;99.90
11035;DHT22;5571;48.110;-1.706;2023-01-31T07:45:57;6.70;99.90
11035;DHT22;5571;48.110;-1.706;2023-01-31T07:48:23;6.70;99.90
11035;DHT22;5571;48.110;-1.706;2023-01-31T07:50:57;6.60;99.90
11035;DHT22;5571;48.110;-1.706;2023-01-31T07:53:23;6.70;99.90
11035;DHT22;5571;48.110;-1.706;2023-01-31T07:55:49;6.70;99.90
11035;DHT22;5571;48.110;-1.706;2023-01-31T07:58:15;6.70;99.90
11035;DHT22;5571;48.110;-1.706;2023-01-31T08:00:41;6.70;99.90
11035;DHT22;5571;48.110;-1.706;2023-01-31T08:03:30;6.70;99.90
11035;DHT22;5571;48.110;-1.706;2023-01-31T08:06:07;6.70;99.90
11035;DHT22;5571;48.110;-1.706;2023-01-31T08:08:35;6.80;99.90
11035;DHT22;5571;48.110;-1.706;2023-01-31T08:11:00;6.70;99.90
11035;DHT22;5571;48.110;-1.706;2023-01-31T08:13:26;6.70;99.90
11035;DHT22;5571;48.110;-1.706;2023-01-31T08:15:53;6.70;99.90
11035;DHT22;5571;48.110;-1.706;2023-01-31T08:18:19;6.80;99.90
11035;DHT22;5571;48.110;-1.706;2023-01-31T08:20:44;6.80;99.90
11035;DHT22;5571;48.110;-1.706;2023-01-31T08:23:10;6.80;99.90
11035;DHT22;5571;48.110;-1.706;2023-01-31T08:25:35;6.80;99.90
11035;DHT22;5571;48.110;-1.706;2023-01-31T08:28:01;6.80;99.90
11035;DHT22;5571;48.110;-1.706;2023-01-31T08:30:27;6.80;99.90
11035;DHT22;5571;48.110;-1.706;2023-01-31T08:32:54;6.80;99.90
11035;DHT22;5571;48.110;-1.706;2023-01-31T08:35:20;6.90;99.90
11035;DHT22;5571;48.110;-1.706;2023-01-31T08:37:45;6.90;99.90
11035;DHT22;5571;48.110;-1.706;2023-01-31T08:40:12;6.90;99.90
11035;DHT22;5571;48.110;-1.706;2023-01-31T08:42:37;6.90;99.90
11035;DHT22;5571;48.110;-1.706;2023-01-31T08:45:03;6.90;99.90
11035;DHT22;5571;48.110;-1.706;2023-01-31T08:47:29;6.90;99.90
11035;DHT22;5571;48.110;-1.706;2023-01-31T08:49:55;7.00;99.90
11035;DHT22;5571;48.110;-1.706;2023-01-31T08:52:20;6.90;99.90
11035;DHT22;5571;48.110;-1.706;2023-01-31T08:54:46;6.90;99.90
11035;DHT22;5571;48.110;-1.706;2023-01-31T08:57:12;7.00;99.90
11035;DHT22;5571;48.110;-1.706;2023-01-31T08:59:37;7.00;99.90
11035;DHT22;5571;48.110;-1.706;2023-01-31T09:02:03;7.00;99.90
11035;DHT22;5571;48.110;-1.706;2023-01-31T09:04:28;7.00;99.90
11035;DHT22;5571;48.110;-1.706;2023-01-31T09:06:54;7.00;99.90
11035;DHT22;5571;48.110;-1.706;2023-01-31T09:09:20;7.10;99.90
11035;DHT22;5571;48.110;-1.706;2023-01-31T09:11:46;7.10;99.90
11035;DHT22;5571;48.110;-1.706;2023-01-31T09:14:11;7.10;99.90
11035;DHT22;5571;48.110;-1.706;2023-01-31T09:16:37;7.20;99.90
11035;DHT22;5571;48.110;-1.706;2023-01-31T09:19:03;7.10;99.90
11035;DHT22;5571;48.110;-1.706;2023-01-31T09:21:29;7.20;99.90
11035;DHT22;5571;48.110;-1.706;2023-01-31T09:23:56;7.20;99.90
11035;DHT22;5571;48.110;-1.706;2023-01-31T09:26:22;7.20;99.90
11035;DHT22;5571;48.110;-1.706;2023-01-31T09:28:48;7.30;99.90
11035;DHT22;5571;48.110;-1.706;2023-01-31T09:31:17;7.30;99.90
11035;DHT22;5571;48.110;-1.706;2023-01-31T09:33:45;7.30;99.90
11035;DHT22;5571;48.110;-1.706;2023-01-31T09:36:16;7.40;99.90
11035;DHT22;5571;48.110;-1.706;2023-01-31T09:38:42;7.40;99.90
11035;DHT22;5571;48.110;-1.706;2023-01-31T09:41:18;7.40;99.90
11035;DHT22;5571;48.110;-1.706;2023-01-31T09:43:55;7.50;99.90
11035;DHT22;5571;48.110;-1.706;2023-01-31T09:46:26;7.60;99.90
11035;DHT22;5571;48.110;-1.706;2023-01-31T09:48:55;7.60;99.90
11035;DHT22;5571;48.110;-1.706;2023-01-31T09:51:21;7.60;99.90
11035;DHT22;5571;48.110;-1.706;2023-01-31T09:53:48;7.70;99.90
11035;DHT22;5571;48.110;-1.706;2023-01-31T10:02:02;7.80;99.90
11035;DHT22;5571;48.110;-1.706;2023-01-31T10:13:03;8.30;99.90
11035;DHT22;5571;48.110;-1.706;2023-01-31T10:15:36;8.50;99.90
11035;DHT22;5571;48.110;-1.706;2023-01-31T10:18:10;8.70;99.90
11035;DHT22;5571;48.110;-1.706;2023-01-31T10:20:45;8.70;99.90
11035;DHT22;5571;48.110;-1.706;2023-01-31T10:23:33;8.80;99.90
11035;DHT22;5571;48.110;-1.706;2023-01-31T10:26:04;9.00;99.90
11035;DHT22;5571;48.110;-1.706;2023-01-31T10:31:29;9.20;99.90
11035;DHT22;5571;48.110;-1.706;2023-01-31T10:34:25;9.10;99.90
11035;DHT22;5571;48.110;-1.706;2023-01-31T10:37:04;9.30;99.90
11035;DHT22;5571;48.110;-1.706;2023-01-31T10:39:51;9.40;99.90
11035;DHT22;5571;48.110;-1.706;2023-01-31T10:44:57;9.70;99.90
11035;DHT22;5571;48.110;-1.706;2023-01-31T10:47:40;9.80;99.90
11035;DHT22;5571;48.110;-1.706;2023-01-31T10:50:15;10.00;99.90
11035;DHT22;5571;48.110;-1.706;2023-01-31T10:56:02;10.40;99.90
11035;DHT22;5571;48.110;-1.706;2023-01-31T10:58:28;10.70;99.90
11035;DHT22;5571;48.110;-1.706;2023-01-31T11:00:54;10.70;99.90
11035;DHT22;5571;48.110;-1.706;2023-01-31T11:03:20;10.50;99.90
11035;DHT22;5571;48.110;-1.706;2023-01-31T11:05:54;10.40;99.90
11035;DHT22;5571;48.110;-1.706;2023-01-31T11:08:42;10.40;99.90
11035;DHT22;5571;48.110;-1.706;2023-01-31T11:11:12;10.40;99.90
11035;DHT22;5571;48.110;-1.706;2023-01-31T11:13:39;10.50;99.90
11035;DHT22;5571;48.110;-1.706;2023-01-31T11:16:11;10.40;99.90
11035;DHT22;5571;48.110;-1.706;2023-01-31T11:18:43;10.20;99.90
11035;DHT22;5571;48.110;-1.706;2023-01-31T11:21:22;10.30;99.90
11035;DHT22;5571;48.110;-1.706;2023-01-31T11:23:49;10.20;99.90
11035;DHT22;5571;48.110;-1.706;2023-01-31T11:26:31;10.30;99.90
11035;DHT22;5571;48.110;-1.706;2023-01-31T11:28:57;10.50;99.90
11035;DHT22;5571;48.110;-1.706;2023-01-31T11:31:32;10.70;99.90
11035;DHT22;5571;48.110;-1.706;2023-01-31T11:34:18;10.70;99.90
11035;DHT22;5571;48.110;-1.706;2023-01-31T11:36:45;10.70;99.90
11035;DHT22;5571;48.110;-1.706;2023-01-31T11:39:31;10.70;99.90
11035;DHT22;5571;48.110;-1.706;2023-01-31T11:42:14;10.80;99.90
11035;DHT22;5571;48.110;-1.706;2023-01-31T11:45:00;10.60;99.90
11035;DHT22;5571;48.110;-1.706;2023-01-31T11:47:42;10.40;99.90
11035;DHT22;5571;48.110;-1.706;2023-01-31T11:52:44;10.30;99.90
11035;DHT22;5571;48.110;-1.706;2023-01-31T11:55:16;10.40;99.90
11035;DHT22;5571;48.110;-1.706;2023-01-31T11:57:42;10.60;99.90
11035;DHT22;5571;48.110;-1.706;2023-01-31T12:02:44;10.60;99.90
11035;DHT22;5571;48.110;-1.706;2023-01-31T12:05:14;10.70;99.90
11035;DHT22;5571;48.110;-1.706;2023-01-31T12:07:50;11.10;99.90
11035;DHT22;5571;48.110;-1.706;2023-01-31T12:13:16;11.80;99.90
11035;DHT22;5571;48.110;-1.706;2023-01-31T12:15:51;11.90;99.90
11035;DHT22;5571;48.110;-1.706;2023-01-31T12:41:05;12.20;99.90
11035;DHT22;5571;48.110;-1.706;2023-01-31T12:49:16;12.80;99.90
11035;DHT22;5571;48.110;-1.706;2023-01-31T13:08:33;13.70;99.90
11035;DHT22;5571;48.110;-1.706;2023-01-31T13:13:31;13.00;99.90
11035;DHT22;5571;48.110;-1.706;2023-01-31T13:16:04;12.90;99.90
11035;DHT22;5571;48.110;-1.706;2023-01-31T13:18:35;13.00;99.90
11035;DHT22;5571;48.110;-1.706;2023-01-31T13:21:05;12.90;99.90
11035;DHT22;5571;48.110;-1.706;2023-01-31T13:23:39;12.70;99.90
11035;DHT22;5571;48.110;-1.706;2023-01-31T13:26:31;12.70;99.90
11035;DHT22;5571;48.110;-1.706;2023-01-31T13:29:02;12.80;99.90
11035;DHT22;5571;48.110;-1.706;2023-01-31T13:31:45;12.80;99.90
11035;DHT22;5571;48.110;-1.706;2023-01-31T13:34:25;12.30;99.90
11035;DHT22;5571;48.110;-1.706;2023-01-31T13:36:58;12.20;99.90
11035;DHT22;5571;48.110;-1.706;2023-01-31T13:40:08;12.10;99.90
11035;DHT22;5571;48.110;-1.706;2023-01-31T13:42:41;11.90;99.90
11035;DHT22;5571;48.110;-1.706;2023-01-31T13:45:07;11.80;99.90
11035;DHT22;5571;48.110;-1.706;2023-01-31T13:47:52;11.60;99.90
11035;DHT22;5571;48.110;-1.706;2023-01-31T13:53:58;11.60;99.90
11035;DHT22;5571;48.110;-1.706;2023-01-31T13:56:29;11.50;99.90
11035;DHT22;5571;48.110;-1.706;2023-01-31T13:58:56;11.40;99.90
11035;DHT22;5571;48.110;-1.706;2023-01-31T14:01:24;11.30;99.90
11035;DHT22;5571;48.110;-1.706;2023-01-31T14:14:50;11.20;99.90
11035;DHT22;5571;48.110;-1.706;2023-01-31T14:20:03;11.20;99.90
11035;DHT22;5571;48.110;-1.706;2023-01-31T14:22:32;11.30;99.90
11035;DHT22;5571;48.110;-1.706;2023-01-31T14:28:17;11.50;99.90
11035;DHT22;5571;48.110;-1.706;2023-01-31T14:33:05;11.30;99.90
11035;DHT22;5571;48.110;-1.706;2023-01-31T14:35:50;11.30;99.90
11035;DHT22;5571;48.110;-1.706;2023-01-31T14:43:58;11.20;99.90
11035;DHT22;5571;48.110;-1.706;2023-01-31T14:46:43;11.20;99.90
11035;DHT22;5571;48.110;-1.706;2023-01-31T14:57:41;11.20;99.90
11035;DHT22;5571;48.110;-1.706;2023-01-31T15:00:22;11.20;99.90
11035;DHT22;5571;48.110;-1.706;2023-01-31T15:03:20;11.20;99.90
11035;DHT22;5571;48.110;-1.706;2023-01-31T15:06:08;11.10;99.90
11035;DHT22;5571;48.110;-1.706;2023-01-31T15:08:41;11.10;99.90
11035;DHT22;5571;48.110;-1.706;2023-01-31T15:13:54;10.90;99.90
11035;DHT22;5571;48.110;-1.706;2023-01-31T15:18:53;10.90;99.90
11035;DHT22;5571;48.110;-1.706;2023-01-31T15:21:27;10.90;99.90
11035;DHT22;5571;48.110;-1.706;2023-01-31T15:23:54;10.80;99.90
11035;DHT22;5571;48.110;-1.706;2023-01-31T15:26:21;10.80;99.90
11035;DHT22;5571;48.110;-1.706;2023-01-31T15:28:49;10.80;99.90
11035;DHT22;5571;48.110;-1.706;2023-01-31T15:31:20;10.80;99.90
11035;DHT22;5571;48.110;-1.706;2023-01-31T15:33:50;10.80;99.90
11035;DHT22;5571;48.110;-1.706;2023-01-31T15:36:36;11.00;99.90
11035;DHT22;5571;48.110;-1.706;2023-01-31T15:39:29;11.40;99.90
11035;DHT22;5571;48.110;-1.706;2023-01-31T15:41:56;11.70;99.90
11035;DHT22;5571;48.110;-1.706;2023-01-31T15:44:24;11.70;99.90
11035;DHT22;5571;48.110;-1.706;2023-01-31T15:46:52;11.60;99.90
11035;DHT22;5571;48.110;-1.706;2023-01-31T15:49:25;11.50;99.90
11035;DHT22;5571;48.110;-1.706;2023-01-31T15:54:30;11.20;99.90
11035;DHT22;5571;48.110;-1.706;2023-01-31T15:56:56;11.10;99.90
11035;DHT22;5571;48.110;-1.706;2023-01-31T15:59:25;11.00;99.90
11035;DHT22;5571;48.110;-1.706;2023-01-31T16:01:58;10.90;99.90
11035;DHT22;5571;48.110;-1.706;2023-01-31T16:04:25;10.80;99.90
11035;DHT22;5571;48.110;-1.706;2023-01-31T16:06:52;10.70;99.90
11035;DHT22;5571;48.110;-1.706;2023-01-31T16:09:24;10.60;99.90
11035;DHT22;5571;48.110;-1.706;2023-01-31T16:11:50;10.60;99.90
11035;DHT22;5571;48.110;-1.706;2023-01-31T16:14:17;10.50;99.90
11035;DHT22;5571;48.110;-1.706;2023-01-31T16:16:46;10.50;99.90
11035;DHT22;5571;48.110;-1.706;2023-01-31T16:19:21;10.50;99.90
11035;DHT22;5571;48.110;-1.706;2023-01-31T16:21:48;10.50;99.90
11035;DHT22;5571;48.110;-1.706;2023-01-31T16:24:16;10.50;99.90
11035;DHT22;5571;48.110;-1.706;2023-01-31T16:27:12;10.40;99.90
11035;DHT22;5571;48.110;-1.706;2023-01-31T16:29:52;10.30;99.90
11035;DHT22;5571;48.110;-1.706;2023-01-31T16:32:29;10.20;99.90
11035;DHT22;5571;48.110;-1.706;2023-01-31T16:34:59;10.00;99.90
11035;DHT22;5571;48.110;-1.706;2023-01-31T16:40:20;9.80;99.90
11035;DHT22;5571;48.110;-1.706;2023-01-31T16:42:47;9.80;99.90
11035;DHT22;5571;48.110;-1.706;2023-01-31T16:47:53;9.60;99.90
11035;DHT22;5571;48.110;-1.706;2023-01-31T16:53:04;9.60;99.90
11035;DHT22;5571;48.110;-1.706;2023-01-31T16:55:30;9.60;99.90
11035;DHT22;5571;48.110;-1.706;2023-01-31T16:57:56;9.60;99.90
11035;DHT22;5571;48.110;-1.706;2023-01-31T17:02:55;9.50;99.90
11035;DHT22;5571;48.110;-1.706;2023-01-31T17:05:26;9.50;99.90
11035;DHT22;5571;48.110;-1.706;2023-01-31T17:07:55;9.60;99.90
11035;DHT22;5571;48.110;-1.706;2023-01-31T17:10:33;9.60;99.90
11035;DHT22;5571;48.110;-1.706;2023-01-31T17:13:23;9.50;99.90
11035;DHT22;5571;48.110;-1.706;2023-01-31T17:15:49;9.50;99.90
11035;DHT22;5571;48.110;-1.706;2023-01-31T17:18:15;9.50;99.90
11035;DHT22;5571;48.110;-1.706;2023-01-31T17:20:44;9.50;99.90
11035;DHT22;5571;48.110;-1.706;2023-01-31T17:23:10;9.50;99.90
11035;DHT22;5571;48.110;-1.706;2023-01-31T17:25:36;9.50;99.90
11035;DHT22;5571;48.110;-1.706;2023-01-31T17:28:03;9.50;99.90
11035;DHT22;5571;48.110;-1.706;2023-01-31T17:30:30;9.40;99.90
11035;DHT22;5571;48.110;-1.706;2023-01-31T17:32:59;9.40;99.90
11035;DHT22;5571;48.110;-1.706;2023-01-31T17:35:33;9.40;99.90
11035;DHT22;5571;48.110;-1.706;2023-01-31T17:38:00;9.40;99.90
11035;DHT22;5571;48.110;-1.706;2023-01-31T17:40:26;9.40;99.90
11035;DHT22;5571;48.110;-1.706;2023-01-31T17:42:54;9.40;99.90
11035;DHT22;5571;48.110;-1.706;2023-01-31T17:45:21;9.40;99.90
11035;DHT22;5571;48.110;-1.706;2023-01-31T17:47:47;9.40;99.90
11035;DHT22;5571;48.110;-1.706;2023-01-31T17:50:15;9.40;99.90
11035;DHT22;5571;48.110;-1.706;2023-01-31T17:52:41;9.40;99.90
11035;DHT22;5571;48.110;-1.706;2023-01-31T17:55:07;9.40;99.90
11035;DHT22;5571;48.110;-1.706;2023-01-31T17:57:33;9.30;99.90
11035;DHT22;5571;48.110;-1.706;2023-01-31T17:59:59;9.30;99.90
11035;DHT22;5571;48.110;-1.706;2023-01-31T18:02:24;9.30;99.90
11035;DHT22;5571;48.110;-1.706;2023-01-31T18:04:50;9.30;99.90
11035;DHT22;5571;48.110;-1.706;2023-01-31T18:07:16;9.30;99.90
11035;DHT22;5571;48.110;-1.706;2023-01-31T18:09:42;9.30;99.90
11035;DHT22;5571;48.110;-1.706;2023-01-31T18:12:08;9.30;99.90
11035;DHT22;5571;48.110;-1.706;2023-01-31T18:14:33;9.30;99.90
11035;DHT22;5571;48.110;-1.706;2023-01-31T18:16:59;9.30;99.90
11035;DHT22;5571;48.110;-1.706;2023-01-31T18:19:25;9.30;99.90
11035;DHT22;5571;48.110;-1.706;2023-01-31T18:21:51;9.30;99.90
11035;DHT22;5571;48.110;-1.706;2023-01-31T18:24:16;9.30;99.90
11035;DHT22;5571;48.110;-1.706;2023-01-31T18:26:42;9.30;99.90
11035;DHT22;5571;48.110;-1.706;2023-01-31T18:29:08;9.30;99.90
11035;DHT22;5571;48.110;-1.706;2023-01-31T18:31:33;9.30;99.90
11035;DHT22;5571;48.110;-1.706;2023-01-31T18:33:59;9.30;99.90
11035;DHT22;5571;48.110;-1.706;2023-01-31T18:36:24;9.20;99.90
11035;DHT22;5571;48.110;-1.706;2023-01-31T18:38:50;9.20;99.90
11035;DHT22;5571;48.110;-1.706;2023-01-31T18:41:19;9.20;99.90
11035;DHT22;5571;48.110;-1.706;2023-01-31T18:43:46;9.20;99.90
11035;DHT22;5571;48.110;-1.706;2023-01-31T18:46:12;9.30;99.90
11035;DHT22;5571;48.110;-1.706;2023-01-31T18:48:39;9.20;99.90
11035;DHT22;5571;48.110;-1.706;2023-01-31T18:51:10;9.10;99.90